Time;durP1;ratioP1;P1;durP2;ratioP2;P2;SDS_P1;SDS_P2;PMS_P1;PMS_P2;Temp;Humidity;BMP_temperature;BMP_pressure;BME280_temperature;BME280_humidity;BME280_pressure;Samples;Min_cycle;Max_cycle;Signal;HPM_P1;HPM_P2
2022/11/12 00:01:13;;;;;;;24.17;11.07;;;;;;;10.80;100.00;97913.03;5101886;28;20087;-47
2022/11/12 00:03:42;;;;;;;24.33;11.35;;;;;;;11.11;100.00;97902.88;5104777;28;20078;-47
2022/11/12 00:06:10;;;;;;;21.35;11.15;;;;;;;10.74;100.00;97916.13;5097031;28;20603;-52
2022/11/12 00:08:38;;;;;;;18.90;12.23;;;;;;;10.04;100.00;97913.09;5104400;28;20071;-51
2022/11/12 00:11:08;;;;;;;27.05;12.15;;;;;;;10.45;100.00;97908.47;5095019;28;20078;-48
2022/11/12 00:13:36;;;;;;;25.73;12.60;;;;;;;10.60;100.00;97916.28;5104849;28;20078;-50
2022/11/12 00:16:05;;;;;;;16.95;11.68;;;;;;;10.41;100.00;97922.81;5100329;28;20079;-43
2022/11/12 00:18:34;;;;;;;29.45;12.13;;;;;;;10.29;100.00;97922.81;5100083;28;20095;-48
2022/11/12 00:21:02;;;;;;;26.55;12.02;;;;;;;10.61;100.00;97924.06;5099368;28;20839;-47
2022/11/12 00:23:30;;;;;;;22.85;12.35;;;;;;;10.98;100.00;97920.56;5097109;28;20071;-48
2022/11/12 00:26:00;;;;;;;22.95;11.43;;;;;;;9.88;100.00;97929.16;5098723;28;20072;-48
2022/11/12 00:28:29;;;;;;;21.90;10.45;;;;;;;10.19;100.00;97928.72;5104511;28;20079;-45
2022/11/12 00:31:09;;;;;;;28.75;11.85;;;;;;;10.41;100.00;97930.72;5104440;28;20082;-47
2022/11/12 00:33:41;;;;;;;18.98;11.43;;;;;;;10.70;100.00;97919.91;5104071;28;20083;-49
2022/11/12 00:36:10;;;;;;;23.17;11.02;;;;;;;10.66;100.00;97919.28;5096713;28;20071;-44
2022/11/12 00:38:38;;;;;;;22.55;11.25;;;;;;;10.47;100.00;97918.09;5099250;28;20082;-51
2022/11/12 00:41:06;;;;;;;19.67;10.85;;;;;;;10.33;100.00;97917.25;5100475;28;20482;-46
2022/11/12 00:43:36;;;;;;;29.25;11.40;;;;;;;11.08;100.00;97913.66;5100264;28;20083;-48
2022/11/12 00:46:05;;;;;;;25.20;10.97;;;;;;;10.88;100.00;97915.97;5095712;28;20090;-48
2022/11/12 00:48:33;;;;;;;28.05;11.95;;;;;;;10.63;100.00;97919.53;5096789;28;20091;-50
2022/11/12 00:51:03;;;;;;;18.90;10.65;;;;;;;11.26;100.00;97914.13;5105709;28;20525;-46
2022/11/12 00:53:31;;;;;;;18.73;10.23;;;;;;;11.04;100.00;97913.03;5100115;28;20075;-49
2022/11/12 00:56:01;;;;;;;24.55;10.75;;;;;;;11.39;100.00;97901.72;5100866;28;20094;-46
2022/11/12 00:58:30;;;;;;;24.23;10.60;;;;;;;11.32;100.00;97908.38;5098385;28;20082;-53
2022/11/12 01:01:05;;;;;;;22.40;11.27;;;;;;;11.52;100.00;97896.34;5105500;28;20119;-43
2022/11/12 01:03:33;;;;;;;25.27;10.25;;;;;;;11.73;100.00;97893.88;5096629;28;20082;-47
2022/11/12 01:06:03;;;;;;;26.90;10.63;;;;;;;11.63;100.00;97894.59;5101897;28;20075;-47
2022/11/12 01:08:32;;;;;;;34.57;11.23;;;;;;;11.56;100.00;97898.66;5098579;28;20079;-45
2022/11/12 01:11:06;;;;;;;24.02;10.60;;;;;;;11.97;100.00;97883.25;5099023;28;21054;-52
2022/11/12 01:13:34;;;;;;;20.73;9.75;;;;;;;11.67;100.00;97889.91;5096180;28;20086;-49
2022/11/12 01:16:12;;;;;;;31.48;10.95;;;;;;;11.85;100.00;97877.97;5097895;28;20079;-50
2022/11/12 01:18:40;;;;;;;32.15;10.73;;;;;;;11.53;100.00;97888.31;5095953;28;20098;-52
2022/11/12 01:21:08;;;;;;;27.50;10.38;;;;;;;12.06;100.00;97882.56;5098945;28;20087;-52
2022/11/12 01:23:38;;;;;;;26.90;10.70;;;;;;;12.04;100.00;97885.34;5097723;28;20075;-47
2022/11/12 01:26:08;;;;;;;23.55;10.85;;;;;;;12.25;100.00;97879.31;5101784;28;20075;-48
2022/11/12 01:28:37;;;;;;;36.65;11.80;;;;;;;12.23;100.00;97882.09;5098371;28;20078;-50
2022/11/12 01:31:15;;;;;;;30.13;10.00;;;;;;;12.40;100.00;97872.81;5097877;28;20090;-44
2022/11/12 01:33:46;;;;;;;26.77;11.20;;;;;;;12.27;100.00;97875.59;5099065;28;20079;-49
2022/11/12 01:36:15;;;;;;;;;;;;;;;12.18;100.00;97873.69;5100382;28;20083;-47
2022/11/12 01:38:44;;;;;;;21.30;9.85;;;;;;;11.59;100.00;97873.78;5099689;28;19955;-47
2022/11/12 01:41:15;;;;;;;32.80;11.10;;;;;;;11.14;100.00;97873.63;5098110;28;20091;-50
2022/11/12 01:43:44;;;;;;;23.45;10.77;;;;;;;11.46;100.00;97873.00;5092438;28;20075;-47
2022/11/12 01:46:17;;;;;;;36.42;11.63;;;;;;;11.02;100.00;97869.25;5098768;28;20564;-47
2022/11/12 01:48:48;;;;;;;33.67;11.18;;;;;;;11.10;100.00;97865.09;5093892;28;20083;-45
2022/11/12 01:51:17;;;;;;;20.45;10.60;;;;;;;11.20;100.00;97862.59;5097640;28;20071;-44
2022/11/12 01:53:47;;;;;;;23.58;11.35;;;;;;;11.45;100.00;97860.75;5094865;28;20083;-50
2022/11/12 01:56:16;;;;;;;19.98;10.20;;;;;;;11.83;100.00;97852.56;5094789;28;20080;-47
2022/11/12 01:58:45;;;;;;;35.88;10.98;;;;;;;11.50;100.00;97851.56;5093865;28;20537;-49
2022/11/12 02:01:15;;;;;;;18.13;10.75;;;;;;;11.70;100.00;97850.03;5097074;28;20455;-49
2022/11/12 02:03:43;;;;;;;31.73;11.20;;;;;;;11.45;100.00;97855.47;5096079;28;20141;-50
2022/11/12 02:06:13;;;;;;;24.83;10.95;;;;;;;11.80;100.00;97851.03;5095041;28;20078;-51
2022/11/12 02:08:42;;;;;;;27.77;10.43;;;;;;;11.49;100.00;97854.28;5096037;28;20087;-47
2022/11/12 02:11:13;;;;;;;25.90;10.57;;;;;;;11.25;100.00;97857.84;5092269;28;20083;-44
2022/11/12 02:13:59;;;;;;;30.77;10.57;;;;;;;11.23;100.00;97858.91;5098767;28;20557;-48
2022/11/12 02:16:32;;;;;;;21.13;9.98;;;;;;;11.06;100.00;97849.59;5093579;28;20083;-44
2022/11/12 02:19:01;;;;;;;31.27;10.85;;;;;;;11.10;100.00;97854.53;5099245;28;20525;-50
2022/11/12 02:21:31;;;;;;;28.48;10.40;;;;;;;11.12;100.00;97849.97;5091143;28;20076;-48
2022/11/12 02:24:01;;;;;;;33.60;11.38;;;;;;;10.74;100.00;97849.31;5094836;28;20087;-46
2022/11/12 02:26:32;;;;;;;28.67;10.37;;;;;;;11.07;100.00;97848.63;5095674;28;20087;-51
2022/11/12 02:29:01;;;;;;;22.60;10.00;;;;;;;10.53;100.00;97849.91;5095618;28;20146;-47
2022/11/12 02:31:30;;;;;;;21.55;11.25;;;;;;;10.51;100.00;97849.16;5096986;28;20087;-46
2022/11/12 02:33:58;;;;;;;25.83;10.60;;;;;;;10.89;100.00;97845.53;5095000;28;20581;-44
2022/11/12 02:36:27;;;;;;;28.02;10.48;;;;;;;10.79;100.00;97849.81;5096935;28;20094;-47
2022/11/12 02:38:57;;;;;;;27.67;10.77;;;;;;;10.54;100.00;97848.13;5096593;28;20525;-49
2022/11/12 02:41:25;;;;;;;33.13;12.00;;;;;;;10.62;100.00;97846.59;5094491;28;20094;-50
2022/11/12 02:43:53;;;;;;;22.73;10.75;;;;;;;10.87;100.00;97842.16;5098034;28;20075;-47
2022/11/12 02:46:22;;;;;;;27.75;10.88;;;;;;;10.88;100.00;97839.44;5095698;28;20084;-43
2022/11/12 02:48:50;;;;;;;23.08;10.38;;;;;;;11.16;100.00;97838.22;5093123;28;20094;-47
2022/11/12 02:51:18;;;;;;;23.08;10.30;;;;;;;11.46;100.00;97843.94;5094297;28;20095;-45
2022/11/12 02:53:46;;;;;;;33.90;11.07;;;;;;;11.51;100.00;97847.94;5094449;28;20078;-43
2022/11/12 02:56:16;;;;;;;23.10;10.55;;;;;;;11.69;100.00;97856.25;5095023;28;20064;-43
2022/11/12 02:58:44;;;;;;;31.13;10.80;;;;;;;11.68;100.00;97849.31;5092927;28;20080;-46
2022/11/12 03:01:13;;;;;;;28.65;10.52;;;;;;;11.27;100.00;97852.44;5095317;28;20075;-45
2022/11/12 03:03:41;;;;;;;24.25;10.98;;;;;;;11.58;100.00;97854.44;5096665;28;20106;-43
2022/11/12 03:06:09;;;;;;;39.83;10.80;;;;;;;11.62;100.00;97853.25;5097201;28;20090;-44
2022/11/12 03:08:38;;;;;;;22.27;10.57;;;;;;;11.85;100.00;97855.97;5100174;28;20077;-43
2022/11/12 03:11:07;;;;;;;32.85;10.88;;;;;;;11.96;100.00;97855.13;5097175;28;20078;-48
2022/11/12 03:13:37;;;;;;;23.63;10.90;;;;;;;11.98;100.00;97855.88;5098111;28;20080;-46
2022/11/12 03:16:06;;;;;;;38.13;11.13;;;;;;;11.94;100.00;97855.28;5101678;28;20079;-43
2022/11/12 03:18:34;;;;;;;40.33;10.88;;;;;;;11.61;100.00;97856.03;5100070;28;20082;-44
2022/11/12 03:21:03;;;;;;;21.08;10.70;;;;;;;12.13;100.00;97851.19;5100567;28;20059;-50
2022/11/12 03:23:32;;;;;;;28.52;10.77;;;;;;;12.05;100.00;97847.34;5103376;28;20518;-48
2022/11/12 03:26:02;;;;;;;32.25;10.80;;;;;;;12.07;100.00;97844.56;5098169;28;20083;-44
2022/11/12 03:28:30;;;;;;;;;;;;;;;12.38;100.00;97843.00;5104451;28;20462;-44
2022/11/12 03:31:00;;;;;;;23.25;10.48;;;;;;;12.32;100.00;97846.16;5101113;28;19970;-42
2022/11/12 03:33:28;;;;;;;31.50;10.68;;;;;;;12.29;100.00;97847.22;5102471;28;20083;-46
2022/11/12 03:35:57;;;;;;;38.83;10.95;;;;;;;11.81;100.00;97846.56;5100718;28;20565;-47
2022/11/12 03:38:25;;;;;;;64.80;12.07;;;;;;;12.31;100.00;97847.91;5103066;28;20068;-43
2022/11/12 03:40:54;;;;;;;70.35;11.70;;;;;;;12.38;100.00;97842.16;5101424;28;20075;-48
2022/11/12 03:43:22;;;;;;;64.30;12.70;;;;;;;11.93;100.00;97848.28;5101805;28;20078;-45
2022/11/12 03:45:50;;;;;;;44.28;11.13;;;;;;;12.30;100.00;97850.69;5100410;28;20071;-45
2022/11/12 03:48:20;;;;;;;47.92;11.65;;;;;;;11.61;100.00;97848.94;5098847;28;20102;-49
2022/11/12 03:50:49;;;;;;;40.67;11.90;;;;;;;11.98;100.00;97851.44;5098304;28;20084;-46
2022/11/12 03:53:17;;;;;;;35.70;11.45;;;;;;;11.69;100.00;97853.63;5096342;28;20087;-44
2022/11/12 03:55:45;;;;;;;43.58;11.70;;;;;;;11.80;100.00;97858.06;5100510;28;20094;-42
2022/11/12 03:58:14;;;;;;;63.53;11.00;;;;;;;11.78;100.00;97857.38;5105418;28;20074;-45
2022/11/12 04:00:42;;;;;;;55.25;11.40;;;;;;;11.47;100.00;97862.34;5102694;28;20534;-41
2022/11/12 04:03:10;;;;;;;93.60;11.68;;;;;;;11.26;100.00;97861.31;5103203;28;20075;-44
2022/11/12 04:08:38;;;;;;;44.92;10.13;;;;;;;11.94;100.00;97859.69;5100653;28;20478;-44
2022/11/12 04:11:08;;;;;;;53.03;9.50;;;;;;;12.12;100.00;97855.63;5102807;28;20087;-42
2022/11/12 04:13:37;;;;;;;52.75;9.88;;;;;;;11.49;100.00;97859.56;5106509;28;20067;-44
2022/11/12 04:21:54;;;;;;;38.50;10.70;;;;;;;12.14;100.00;97858.16;5099873;28;20087;-42
2022/11/12 04:27:14;;;;;;;52.40;9.30;;;;;;;12.28;100.00;97868.47;5102651;28;20079;-44
2022/11/12 04:32:28;;;;;;;49.70;10.48;;;;;;;12.26;100.00;97865.13;5096751;28;20084;-44
2022/11/12 04:34:56;;;;;;;26.02;8.68;;;;;;;12.05;100.00;97871.13;5096597;28;20060;-44
2022/11/12 04:37:28;;;;;;;48.88;9.15;;;;;;;11.94;100.00;97857.06;5098718;28;20066;-45
2022/11/12 04:44:58;;;;;;;49.58;9.13;;;;;;;11.87;100.00;97859.31;5099304;28;20083;-41
2022/11/12 04:45:41;;;;;;;33.22;7.55;;;;;;;11.72;100.00;97861.31;5101496;28;20109;-41
2022/11/12 04:48:09;;;;;;;28.77;7.85;;;;;;;11.75;100.00;97854.97;5093998;28;20075;-42
2022/11/12 04:50:38;;;;;;;31.63;7.88;;;;;;;11.65;100.00;97857.47;5094769;28;20072;-48
2022/11/12 04:53:08;;;;;;;38.88;8.60;;;;;;;11.70;100.00;97865.03;5096019;28;20075;-48
2022/11/12 04:55:36;;;;;;;36.00;8.23;;;;;;;11.89;100.00;97865.34;5096427;28;20136;-47
2022/11/12 04:58:04;;;;;;;43.00;8.02;;;;;;;11.79;100.00;97865.16;5096645;28;20067;-43
2022/11/12 05:00:33;;;;;;;42.45;8.93;;;;;;;11.95;100.00;97871.97;5097853;28;20627;-43
2022/11/12 05:03:01;;;;;;;25.70;8.27;;;;;;;11.79;100.00;97869.63;5096410;28;20082;-43
2022/11/12 05:05:29;;;;;;;24.25;7.38;;;;;;;11.59;100.00;97860.56;5098181;28;20079;-42
2022/11/12 05:08:01;;;;;;;20.70;7.50;;;;;;;11.22;100.00;97862.47;5104894;28;20079;-44
2022/11/12 05:10:31;;;;;;;22.90;7.22;;;;;;;11.22;100.00;97865.13;5096653;28;20086;-42
2022/11/12 05:12:59;;;;;;;33.87;8.43;;;;;;;11.52;100.00;97854.91;5091763;28;20083;-47
2022/11/12 05:15:28;;;;;;;22.15;8.07;;;;;;;11.73;100.00;97852.41;5096036;28;20106;-41
2022/11/12 05:17:56;;;;;;;23.92;7.57;;;;;;;11.61;100.00;97861.31;5100909;28;20098;-43
2022/11/12 05:20:24;;;;;;;34.97;11.40;;;;;;;11.44;100.00;97859.94;5099629;28;20090;-44
2022/11/12 05:22:52;;;;;;;50.75;8.85;;;;;;;11.29;100.00;97859.28;5094664;28;20110;-44
2022/11/12 05:25:36;;;;;;;32.53;8.50;;;;;;;11.36;100.00;97849.94;5095178;28;20079;-45
2022/11/12 05:28:04;;;;;;;30.52;9.18;;;;;;;11.21;100.00;97866.09;5098846;28;20088;-43
2022/11/12 05:30:35;;;;;;;36.75;8.27;;;;;;;10.71;100.00;97866.22;5097672;28;20078;-45
2022/11/12 05:33:04;;;;;;;29.25;8.15;;;;;;;10.65;100.00;97866.66;5094872;28;20172;-43
2022/11/12 05:35:32;;;;;;;34.85;8.00;;;;;;;10.49;100.00;97866.03;5097596;28;20079;-47
2022/11/12 05:38:00;;;;;;;70.75;9.48;;;;;;;10.29;100.00;97867.47;5094599;28;20076;-50
2022/11/12 05:40:29;;;;;;;24.98;8.10;;;;;;;10.48;100.00;97867.84;5097963;28;20086;-48
2022/11/12 05:42:58;;;;;;;30.27;7.93;;;;;;;10.56;100.00;97869.94;5103220;28;20462;-47
2022/11/12 05:45:27;;;;;;;23.63;8.57;;;;;;;10.44;100.00;97872.50;5097077;28;20082;-47
2022/11/12 05:47:55;;;;;;;42.25;8.77;;;;;;;9.71;100.00;97880.22;5098061;28;20055;-48
2022/11/12 05:50:23;;;;;;;32.03;8.10;;;;;;;9.90;100.00;97875.38;5100776;28;20090;-43
2022/11/12 05:53:01;;;;;;;35.33;8.35;;;;;;;10.03;100.00;97885.91;5095087;28;20079;-46
2022/11/12 05:55:31;;;;;;;32.38;8.43;;;;;;;10.60;100.00;97879.34;5095329;28;20067;-45
2022/11/12 05:58:06;;;;;;;34.45;8.40;;;;;;;10.74;100.00;97878.34;5104099;28;20086;-44
2022/11/12 06:00:37;;;;;;;22.23;8.43;;;;;;;10.64;100.00;97884.28;5097341;28;20086;-45
2022/11/12 06:03:06;;;;;;;32.65;9.75;;;;;;;9.92;100.00;97891.09;5097520;28;20537;-47
2022/11/12 06:05:35;;;;;;;41.28;8.40;;;;;;;9.63;100.00;97891.25;5098924;28;20082;-44
2022/11/12 06:08:04;;;;;;;29.90;7.93;;;;;;;9.46;100.00;97902.94;5097148;28;20544;-49
2022/11/12 06:10:33;;;;;;;36.65;8.63;;;;;;;9.93;100.00;97892.78;5099521;28;20083;-49
2022/11/12 06:13:01;;;;;;;44.13;8.85;;;;;;;10.28;100.00;97894.78;5090149;28;20110;-46
2022/11/12 06:15:31;;;;;;;40.00;8.68;;;;;;;10.17;100.00;97906.88;5096697;28;20079;-48
2022/11/12 06:18:06;;;;;;;61.05;9.40;;;;;;;10.27;100.00;97896.56;5100130;28;20643;-44
2022/11/12 06:20:35;;;;;;;56.55;9.25;;;;;;;9.92;100.00;97901.63;5100613;28;20071;-48
2022/11/12 06:23:03;;;;;;;43.85;8.68;;;;;;;9.90;100.00;97903.50;5094615;28;20082;-46
2022/11/12 06:25:31;;;;;;;47.88;9.55;;;;;;;10.32;100.00;97898.88;5099575;28;20122;-46
2022/11/12 06:28:00;;;;;;;36.83;7.97;;;;;;;10.31;100.00;97895.41;5097758;28;20076;-44
2022/11/12 06:30:28;;;;;;;30.92;8.18;;;;;;;10.76;100.00;97890.44;5098109;28;20075;-45
2022/11/12 06:32:58;;;;;;;45.65;8.93;;;;;;;10.16;100.00;97905.22;5101974;28;20079;-44
2022/11/12 06:35:26;;;;;;;36.70;10.33;;;;;;;10.40;100.00;97902.69;5097630;28;20118;-48
2022/11/12 06:37:55;;;;;;;38.35;9.43;;;;;;;9.63;100.00;97912.34;5097308;28;20086;-43
2022/11/12 06:40:23;;;;;;;34.50;8.90;;;;;;;9.51;100.00;97902.63;5096493;28;20079;-44
2022/11/12 06:42:56;;;;;;;72.18;9.82;;;;;;;9.09;100.00;97912.41;5090954;28;20144;-48
2022/11/12 06:45:25;;;;;;;35.65;8.77;;;;;;;9.87;100.00;97899.28;5093776;28;20079;-42
2022/11/12 06:47:59;;;;;;;45.08;8.80;;;;;;;9.33;100.00;97903.88;5091795;28;20074;-44
2022/11/12 06:50:27;;;;;;;50.17;9.00;;;;;;;9.13;100.00;97913.06;5096728;28;20079;-45
2022/11/12 06:52:58;;;;;;;47.03;8.75;;;;;;;9.52;100.00;97909.59;5094617;28;20604;-44
2022/11/12 06:55:26;;;;;;;78.43;9.25;;;;;;;9.43;100.00;97910.22;5097092;28;20488;-48
2022/11/12 06:57:55;;;;;;;61.92;8.13;;;;;;;9.82;100.00;97911.09;5097578;28;20091;-48
2022/11/12 07:00:23;;;;;;;63.22;8.60;;;;;;;9.37;100.00;97910.63;5094435;28;20072;-45
2022/11/12 07:02:52;;;;;;;73.38;9.95;;;;;;;9.86;100.00;97905.50;5096657;28;20079;-45
2022/11/12 07:05:21;;;;;;;37.13;8.05;;;;;;;10.44;100.00;97909.41;5094762;28;20521;-43
2022/11/12 07:07:50;;;;;;;97.25;10.40;;;;;;;10.41;100.00;97911.44;5096252;28;20083;-44
2022/11/12 07:10:18;;;;;;;39.70;8.30;;;;;;;10.50;100.00;97913.44;5101580;28;20075;-42
2022/11/12 07:12:47;;;;;;;49.67;8.48;;;;;;;10.34;100.00;97910.19;5094206;28;20072;-43
2022/11/12 07:15:20;;;;;;;41.78;8.65;;;;;;;10.02;100.00;97917.66;5102361;28;20244;-43
2022/11/12 07:17:49;;;;;;;45.45;9.27;;;;;;;9.90;100.00;97921.97;5106439;28;20083;-46
2022/11/12 07:20:17;;;;;;;36.15;8.60;;;;;;;10.39;100.00;97923.88;5104703;28;20074;-42
2022/11/12 07:22:47;;;;;;;50.30;9.18;;;;;;;10.01;100.00;97914.16;5108368;28;20082;-46
2022/11/12 07:25:15;;;;;;;39.60;9.17;;;;;;;10.17;100.00;97921.88;5106177;28;20684;-43
2022/11/12 07:27:44;;;;;;;38.80;9.25;;;;;;;10.28;100.00;97923.78;5090409;28;20501;-48
2022/11/12 07:30:13;;;;;;;47.25;8.30;;;;;;;9.84;100.00;97915.34;5077668;28;20075;-44
2022/11/12 07:32:41;;;;;;;49.50;8.13;;;;;;;10.79;100.00;97916.63;5095367;28;20159;-46
2022/11/12 07:35:16;;;;;;;37.85;8.13;;;;;;;10.40;100.00;97918.50;5102223;28;20094;-43
2022/11/12 07:37:45;;;;;;;56.88;8.10;;;;;;;9.60;100.00;97922.22;5100906;28;20552;-47
2022/11/12 07:40:15;;;;;;;72.50;8.68;;;;;;;10.40;100.00;97923.78;5106427;28;20075;-44
2022/11/12 07:42:44;;;;;;;64.72;7.63;;;;;;;10.94;100.00;97906.75;5094173;28;20035;-46
2022/11/12 07:45:13;;;;;;;31.80;6.93;;;;;;;11.16;100.00;97916.59;5099512;28;20087;-41
2022/11/12 07:47:41;;;;;;;33.08;7.28;;;;;;;11.35;100.00;97909.00;5098826;28;20250;-46
2022/11/12 07:50:10;;;;;;;24.48;6.78;;;;;;;11.14;100.00;97903.50;5099522;28;20067;-45
2022/11/12 07:52:38;;;;;;;74.13;9.10;;;;;;;10.58;100.00;97912.88;5096935;28;20131;-41
2022/11/12 07:55:07;;;;;;;50.90;7.95;;;;;;;11.31;100.00;97914.63;5102638;28;20094;-43
2022/11/12 07:57:37;;;;;;;54.65;8.80;;;;;;;10.49;100.00;97919.63;5099573;28;20086;-48
2022/11/12 08:00:06;;;;;;;91.27;9.17;;;;;;;10.44;100.00;97921.78;5106425;28;20063;-46
2022/11/12 08:02:35;;;;;;;40.08;8.20;;;;;;;11.13;100.00;97916.81;5103633;28;20076;-44
2022/11/12 08:05:04;;;;;;;31.10;7.75;;;;;;;11.25;100.00;97915.06;5108434;28;20653;-46
2022/11/12 08:07:41;;;;;;;64.88;9.02;;;;;;;10.87;100.00;97908.16;5100048;28;20052;-45
2022/11/12 08:10:10;;;;;;;52.08;9.27;;;;;;;11.49;100.00;97909.78;5104656;28;20079;-42
2022/11/12 08:12:40;;;;;;;53.78;9.70;;;;;;;11.64;100.00;97912.13;5103513;28;20106;-41
2022/11/12 08:15:09;;;;;;;43.33;8.47;;;;;;;10.69;100.00;97913.78;5102760;28;20643;-48
2022/11/12 08:17:38;;;;;;;36.70;8.48;;;;;;;10.78;100.00;97912.31;5102632;28;20189;-47
2022/11/12 08:20:08;;;;;;;56.63;8.30;;;;;;;11.01;100.00;97908.00;5102155;28;20067;-44
2022/11/12 08:22:36;;;;;;;45.20;8.23;;;;;;;11.09;100.00;97915.38;5100515;28;20079;-43
2022/11/12 08:25:05;;;;;;;35.40;7.97;;;;;;;11.01;100.00;97910.66;5102547;28;20485;-41
2022/11/12 08:27:34;;;;;;;35.20;7.68;;;;;;;10.69;100.00;97919.06;5099780;28;20109;-45
2022/11/12 08:30:04;;;;;;;33.47;8.07;;;;;;;11.24;100.00;97916.03;5099974;28;20090;-45
2022/11/12 08:32:32;;;;;;;55.58;9.57;;;;;;;11.36;100.00;97921.25;5098453;28;20090;-46
2022/11/12 08:35:01;;;;;;;60.17;8.65;;;;;;;11.06;100.00;97924.34;5102050;28;20079;-47
2022/11/12 08:37:29;;;;;;;43.45;8.05;;;;;;;11.53;100.00;97924.47;5100612;28;20463;-44
2022/11/12 08:39:57;;;;;;;38.72;7.85;;;;;;;11.67;100.00;97916.34;5103504;28;20098;-44
2022/11/12 08:42:26;;;;;;;32.60;7.65;;;;;;;11.03;100.00;97924.56;5104909;28;20090;-42
2022/11/12 08:44:54;;;;;;;44.88;7.20;;;;;;;11.82;100.00;97924.91;5098344;28;20076;-42
2022/11/12 08:47:24;;;;;;;52.90;7.57;;;;;;;11.35;100.00;97932.75;5103057;28;20082;-42
2022/11/12 08:49:52;;;;;;;34.15;6.90;;;;;;;11.96;100.00;97922.06;5101097;28;20063;-42
2022/11/12 08:52:20;;;;;;;43.58;7.95;;;;;;;11.91;100.00;97928.69;5102971;28;20526;-43
2022/11/12 08:54:49;;;;;;;31.85;7.80;;;;;;;11.67;100.00;97931.34;5104316;28;20096;-47
2022/11/12 08:57:17;;;;;;;30.52;7.65;;;;;;;12.40;100.00;97925.72;5105694;28;20079;-44
2022/11/12 08:59:45;;;;;;;27.23;7.13;;;;;;;12.08;100.00;97928.25;5105512;28;20075;-49
2022/11/12 09:02:14;;;;;;;69.13;8.48;;;;;;;11.78;100.00;97931.38;5103795;28;20075;-44
2022/11/12 09:04:44;;;;;;;84.07;8.98;;;;;;;11.92;100.00;97927.72;5103448;28;20090;-47
2022/11/12 09:07:12;;;;;;;64.95;8.75;;;;;;;11.44;100.00;97927.78;5102783;28;20094;-45
2022/11/12 09:10:01;;;;;;;59.72;8.07;;;;;;;11.50;100.00;97933.44;5100051;28;20592;-50
2022/11/12 09:12:29;;;;;;;50.15;7.90;;;;;;;10.69;100.00;97942.81;5097771;28;20075;-47
2022/11/12 09:14:57;;;;;;;35.70;8.00;;;;;;;12.55;100.00;97924.53;5105286;28;20727;-45
2022/11/12 09:17:46;;;;;;;38.78;8.60;;;;;;;12.48;100.00;97928.63;5102351;28;20087;-42
2022/11/12 09:20:16;;;;;;;21.10;7.78;;;;;;;12.94;100.00;97922.34;5101785;28;20090;-48
2022/11/12 09:22:44;;;;;;;54.63;8.93;;;;;;;12.66;100.00;97933.41;5099881;28;20084;-41
2022/11/12 09:25:12;;;;;;;42.33;8.32;;;;;;;12.17;100.00;97939.91;5099652;28;20083;-43
2022/11/12 09:27:41;;;;;;;33.08;7.47;;;;;;;12.54;100.00;97941.38;5098647;28;20087;-46
2022/11/12 09:30:15;;;;;;;38.88;8.15;;;;;;;12.73;100.00;97943.41;5105600;28;20474;-41
2022/11/12 09:32:44;;;;;;;45.10;9.10;;;;;;;12.37;100.00;97952.44;5102613;28;20090;-42
2022/11/12 09:35:12;;;;;;;28.13;7.50;;;;;;;12.82;100.00;97950.63;5102074;28;20098;-44
2022/11/12 09:37:42;;;;;;;35.17;7.95;;;;;;;13.18;100.00;97951.28;5105099;28;20079;-41
2022/11/12 09:40:16;;;;;;;37.97;7.63;;;;;;;12.46;100.00;97948.25;5096412;28;20083;-43
2022/11/12 09:42:47;;;;;;;29.50;7.53;;;;;;;13.38;100.00;97944.38;5100599;28;20075;-45
2022/11/12 09:45:21;;;;;;;30.52;7.80;;;;;;;13.69;100.00;97941.84;5101308;28;20119;-40
2022/11/12 09:47:51;;;;;;;20.52;7.93;;;;;;;13.73;100.00;97940.66;5102959;28;20094;-44
2022/11/12 09:50:21;;;;;;;;;;;;;;;13.20;100.00;97951.16;5103592;28;20094;-46
2022/11/12 09:52:56;;;;;;;29.35;8.60;;;;;;;11.99;100.00;97945.63;5102448;28;20378;-47
2022/11/12 09:55:30;;;;;;;31.60;9.13;;;;;;;12.66;100.00;97944.84;5103095;28;20079;-46
2022/11/12 09:57:58;;;;;;;14.52;8.02;;;;;;;13.64;100.00;97930.81;5101634;28;20097;-48
2022/11/12 10:00:26;;;;;;;24.63;8.52;;;;;;;13.96;100.00;97930.75;5103165;28;20079;-46
2022/11/12 10:02:59;;;;;;;39.30;8.23;;;;;;;12.54;100.00;97945.81;5102468;28;20485;-44
2022/11/12 10:05:33;;;;;;;29.83;7.75;;;;;;;12.23;100.00;97939.44;5099847;28;20091;-41
2022/11/12 10:08:20;;;;;;;19.27;7.10;;;;;;;11.36;100.00;97941.56;5100305;28;20082;-43
2022/11/12 10:10:50;;;;;;;17.10;7.07;;;;;;;11.80;100.00;97934.72;5101445;28;20075;-42
2022/11/12 10:13:27;;;;;;;33.87;8.23;;;;;;;12.48;100.00;97931.25;5104787;28;20083;-41
2022/11/12 10:19:27;;;;;;;18.63;7.45;;;;;;;13.09;100.00;97914.09;5101719;28;20083;-48
2022/11/12 10:22:03;;;;;;;25.85;7.93;;;;;;;11.82;100.00;97911.69;5095514;28;20090;-41
2022/11/12 10:24:36;;;;;;;20.08;7.55;;;;;;;11.93;100.00;97916.19;5101317;28;20075;-43
2022/11/12 10:27:12;;;;;;;18.33;7.93;;;;;;;12.71;100.00;97918.03;5102499;28;20160;-43
2022/11/12 10:29:47;;;;;;;14.00;7.55;;;;;;;13.57;100.00;97897.81;5095651;28;20129;-43
2022/11/12 10:32:16;;;;;;;14.18;8.88;;;;;;;13.71;100.00;97900.16;5098177;28;20078;-49
2022/11/12 10:34:44;;;;;;;10.57;6.35;;;;;;;11.83;100.00;97913.34;5100536;28;20073;-47
2022/11/12 10:37:16;;;;;;;7.38;6.35;;;;;;;13.80;100.00;97894.09;5098969;28;20616;-43
2022/11/12 10:39:46;;;;;;;21.13;7.80;;;;;;;12.61;100.00;97898.56;5095120;28;20619;-41
2022/11/12 10:42:17;;;;;;;10.70;6.90;;;;;;;12.18;100.00;97899.25;5101912;28;20086;-48
2022/11/12 10:44:45;;;;;;;;;;;;;;;13.68;100.00;97882.69;5100526;28;20458;-46
2022/11/12 10:47:23;;;;;;;10.30;7.10;;;;;;;12.96;100.00;97893.91;5100248;28;19963;-42
2022/11/12 10:50:16;;;;;;;11.90;7.82;;;;;;;13.66;100.00;97889.94;5097428;28;20083;-42
2022/11/12 10:52:59;;;;;;;9.60;7.20;;;;;;;13.34;100.00;97884.66;5101271;28;20072;-44
2022/11/12 10:55:30;;;;;;;17.45;7.38;;;;;;;13.27;100.00;97880.84;5101879;28;20086;-45
2022/11/12 10:58:20;;;;;;;28.40;7.85;;;;;;;12.58;100.00;97883.75;5100625;28;20051;-43
2022/11/12 11:01:06;;;;;;;38.67;8.18;;;;;;;12.74;100.00;97875.44;5093852;28;20086;-48
2022/11/12 11:03:36;;;;;;;16.63;8.10;;;;;;;13.10;100.00;97868.94;5100058;28;20462;-46
2022/11/12 11:06:06;;;;;;;23.80;7.47;;;;;;;13.26;100.00;97873.88;5099105;28;20071;-44
2022/11/12 11:08:38;;;;;;;11.48;8.50;;;;;;;14.69;100.00;97868.72;5103171;28;20082;-42
2022/11/12 11:11:24;;;;;;;12.75;9.15;;;;;;;15.14;100.00;97862.03;5100290;28;20083;-43
2022/11/12 11:13:54;;;;;;;25.67;11.00;;;;;;;14.62;100.00;97856.09;5100457;28;20079;-47
2022/11/12 11:16:24;;;;;;;16.55;11.13;;;;;;;15.46;100.00;97852.97;5098366;28;20090;-43
2022/11/12 11:18:56;;;;;;;14.17;10.27;;;;;;;15.54;100.00;97859.25;5104416;28;20078;-47
2022/11/12 11:21:50;;;;;;;19.83;8.95;;;;;;;15.33;100.00;97858.56;5100430;28;20499;-43
2022/11/12 11:24:29;;;;;;;18.88;8.95;;;;;;;15.23;100.00;97855.91;5101465;28;20055;-46
2022/11/12 11:27:04;;;;;;;14.88;9.82;;;;;;;14.16;100.00;97855.59;5102331;28;20446;-44
2022/11/12 11:29:57;;;;;;;21.88;9.05;;;;;;;14.74;100.00;97847.03;5100111;28;20094;-45
2022/11/12 11:32:40;;;;;;;15.18;9.35;;;;;;;15.37;100.00;97852.81;5097016;28;20068;-48
2022/11/12 11:35:20;;;;;;;23.20;9.57;;;;;;;14.00;100.00;97857.91;5102357;28;20083;-46
2022/11/12 11:38:00;;;;;;;16.15;10.35;;;;;;;14.81;100.00;97850.81;5101476;28;20087;-42
2022/11/12 11:40:32;;;;;;;17.42;10.07;;;;;;;14.21;100.00;97848.09;5102813;28;20071;-49
2022/11/12 11:43:29;;;;;;;76.20;34.33;;;;;;;14.91;100.00;97849.03;5103569;28;20067;-47
2022/11/12 11:46:06;;;;;;;14.27;10.88;;;;;;;14.10;100.00;97855.28;5103484;28;20063;-47
2022/11/12 11:48:45;;;;;;;17.80;11.55;;;;;;;14.60;100.00;97839.47;5103058;28;20094;-46
2022/11/12 11:51:26;;;;;;;12.60;10.63;;;;;;;13.32;100.00;97852.16;5099068;28;20083;-47
2022/11/12 11:54:02;;;;;;;15.90;12.15;;;;;;;14.50;100.00;97844.75;5105171;28;20083;-45